Rio Hondo, Texas
Current Conditions -  °F | °C
As of 5:52 PM on Friday 21 Nov 2014 (Local Time) from KHRL Reporting Station
Overcast Overcast  
Wind Chill: 74°   Ceiling: 6000
Heat Index: 74°   Visibility: 10mi
Dew Point: 67°   Wind: 15mph
Humidity: 79%   Direction: 140°SE
Pressure: 29.99"   Gusts: NA
Location:  26.24°N, 97.58°W
Report Text: KHRL 212352Z 14013KT 10SM FEW025 BKN060 OVC070 23/19 A2999 RMK AO2 SLP155 T02330194 10261 20233 53004
Loading
Personal Weather Stations






























Interactive Weather Map New forecast layout! Learn more

10-Day Weather Forecast

Advertisements
Track Severe Weather on mobile